Impacts METAR Board
IDs:

KLAS - Las Vegas/McCarran I, NV, US

Updated at: 0300 UTC 06 Dec 2019
Potential Impact None Slight Moderate High
Time 05/15Z 05/16Z 05/17Z 05/18Z 05/19Z 05/20Z 05/21Z 05/22Z 05/23Z 06/00Z 06/01Z 06/02Z 06/03Z
Temp47 50 53 57 58 59 60 60 59 57 56 55 54
Dewpt42 42 43 42 43 44 43 43 43 44 45 45 45
Altim30.08 30.11 30.13 30.15 30.15 30.14 30.11 30.11 30.13 30.14 30.16 30.17 30.19
VIS10 10 10 10 10 10 10 10 10 10 10 10 10
CIG-- -- -- -- -- -- -- -- 250 250 250 250 220
CoverFEWFEWFEWFEWSCTSCTSCTSCTBKNBKNBKNBKNBKN
FltCatVFRVFRVFRVFRVFRVFRVFRVFRVFRVFRVFRVFRVFR
WX--------------------------
WDir210013003403007070506040340
WSpd4 0 5 0 3 4 5 5 5 7 6 4 4
WGst-- -- -- -- -- -- -- -- -- -- -- -- --
Raw hourly METARs
KLAS 051456Z 21004KT 10SM FEW050 08/06 A3008 RMK AO2 SLP187 T00830056 53022
KLAS 051556Z 00000KT 10SM FEW250 10/06 A3011 RMK AO2 SLP195 T01000056
KLAS 051656Z 13005KT 10SM FEW250 12/06 A3013 RMK AO2 SLP201 T01170061
KLAS 051756Z 00000KT 10SM FEW080 FEW250 14/06 A3015 RMK AO2 SLP206 T01390056 10139 20078 51021
KLAS 051856Z 34003KT 10SM SCT080 SCT250 14/06 A3015 RMK AO2 SLP205 T01440061
KLAS 051956Z 03004KT 10SM SCT080 SCT250 15/07 A3014 RMK AO2 SLP198 T01500067
KLAS 052056Z VRB05KT 10SM SCT080 SCT250 16/06 A3011 RMK AO2 SLP191 T01560061 58012
KLAS 052156Z 07005KT 10SM SCT080 SCT250 16/06 A3011 RMK AO2 SLP190 T01560061
KLAS 052256Z 07005KT 10SM SCT080 BKN250 15/06 A3013 RMK AO2 SLP196 T01500061
KLAS 052356Z 05007KT 10SM FEW080 FEW180 BKN250 14/07 A3014 RMK AO2 SLP202 T01390067 10161 20139 53008
KLAS 060056Z 06006KT 10SM FEW080 FEW180 BKN250 13/07 A3016 RMK AO2 SLP208 T01330072
KLAS 060156Z 04004KT 10SM FEW180 BKN250 13/07 A3017 RMK AO2 SLP213 T01280072
KLAS 060256Z 34004KT 10SM SCT180 BKN220 12/07 A3019 RMK AO2 SLP220 T01220072 53015



Page loaded:  03:50 UTC  |   07:50 PM Pacific  |   08:50 PM Mountain  |   09:50 PM Central  |   10:50 PM Eastern

 

ADVISORIES

FORECASTS

FORECASTS

OBSERVATIONS

USER TOOLS

ABOUT US